createdAt,value
2022-08-20T00:01:45.167Z,43.89
2022-08-20T00:06:50.726Z,44.11
2022-08-20T00:11:56.187Z,43.91
2022-08-20T00:17:02.109Z,44.07
2022-08-20T00:22:07.865Z,44.14
2022-08-20T00:27:13.313Z,44.03
2022-08-20T00:32:19.860Z,44.02
2022-08-20T00:37:26.003Z,44.08
2022-08-20T00:42:31.545Z,44.20
2022-08-20T00:47:37.363Z,44.32
2022-08-20T00:52:43.866Z,44.40
2022-08-20T00:58:01.150Z,44.61
2022-08-20T01:03:10.102Z,44.79
2022-08-20T01:08:17.077Z,45.02
2022-08-20T01:13:24.073Z,45.21
2022-08-20T01:18:30.157Z,45.32
2022-08-20T01:23:39.297Z,45.61
2022-08-20T01:28:45.916Z,45.76
2022-08-20T01:33:51.657Z,45.93
2022-08-20T01:38:57.306Z,46.12
2022-08-20T01:44:02.925Z,46.26
2022-08-20T01:49:18.281Z,46.37
2022-08-20T01:54:29.593Z,46.52
2022-08-20T01:59:35.352Z,46.77
2022-08-20T02:04:40.897Z,47.13
2022-08-20T02:09:46.396Z,47.44
2022-08-20T02:14:53.645Z,47.88
2022-08-20T02:20:00.748Z,48.24
2022-08-20T02:25:06.942Z,48.66
2022-08-20T02:30:27.606Z,49.43
2022-08-20T02:35:34.040Z,49.99
2022-08-20T02:40:39.720Z,50.71
2022-08-20T02:45:45.381Z,50.87
2022-08-20T02:50:51.621Z,50.94
2022-08-20T02:55:57.068Z,50.96
2022-08-20T03:01:02.953Z,50.98
2022-08-20T03:06:09.673Z,51.25
2022-08-20T03:11:15.079Z,51.39
2022-08-20T03:16:20.921Z,51.20
2022-08-20T03:21:27.034Z,51.04
2022-08-20T03:26:32.669Z,51.00
2022-08-20T03:31:38.461Z,51.05
2022-08-20T03:36:43.811Z,51.09
2022-08-20T03:41:49.248Z,51.29
2022-08-20T03:46:55.084Z,51.36
2022-08-20T03:52:01.813Z,51.35
2022-08-20T03:57:12.846Z,51.52
2022-08-20T04:02:18.803Z,51.85
2022-08-20T04:07:27.949Z,51.87
2022-08-20T04:12:33.355Z,52.14
2022-08-20T04:17:42.474Z,52.18
2022-08-20T04:22:57.538Z,52.40
2022-08-20T04:28:07.062Z,52.57
2022-08-20T04:33:12.602Z,52.66
2022-08-20T04:38:18.965Z,52.84
2022-08-20T04:43:25.153Z,53.00
2022-08-20T04:48:31.638Z,53.39
2022-08-20T04:53:37.186Z,53.61
2022-08-20T04:58:48.304Z,53.57
2022-08-20T05:03:55.125Z,53.81
2022-08-20T05:09:01.417Z,54.14
2022-08-20T05:14:09.334Z,54.50
2022-08-20T05:19:15.165Z,54.68
2022-08-20T05:24:20.747Z,55.07
2022-08-20T05:29:28.147Z,55.32
2022-08-20T05:34:33.692Z,55.72
2022-08-20T05:39:39.111Z,56.05
2022-08-20T05:44:47.604Z,56.27
2022-08-20T05:49:52.984Z,56.62
2022-08-20T05:54:58.809Z,56.63
2022-08-20T06:00:06.333Z,56.90
2022-08-20T06:05:17.537Z,57.20
2022-08-20T06:10:22.808Z,57.99
2022-08-20T06:15:28.792Z,58.75
2022-08-20T06:20:34.695Z,59.59
2022-08-20T06:25:40.517Z,60.25
2022-08-20T06:30:46.122Z,61.01
2022-08-20T06:35:51.644Z,61.45
2022-08-20T06:40:57.518Z,61.97
2022-08-20T06:46:03.216Z,62.45
2022-08-20T06:51:10.186Z,62.76
2022-08-20T06:56:16.094Z,63.27
2022-08-20T07:01:22.294Z,64.12
2022-08-20T07:06:28.759Z,64.41
2022-08-20T07:11:36.098Z,65.31
2022-08-20T07:16:41.882Z,65.17
2022-08-20T07:21:50.618Z,65.09
2022-08-20T07:26:56.998Z,65.28
2022-08-20T07:32:21.903Z,65.57
2022-08-20T07:37:28.568Z,65.73
2022-08-20T07:42:34.643Z,65.98
2022-08-20T07:47:41.085Z,66.23
2022-08-20T07:52:47.373Z,66.36
2022-08-20T07:57:53.535Z,66.43
2022-08-20T08:03:00.647Z,66.56
2022-08-20T08:08:07.940Z,66.59
2022-08-20T08:13:15.071Z,66.59
2022-08-20T08:18:28.786Z,66.77
2022-08-20T08:23:37.729Z,66.91
2022-08-20T08:28:44.960Z,66.90
2022-08-20T08:33:51.204Z,66.88
2022-08-20T08:38:57.417Z,66.87
2022-08-20T08:44:06.471Z,66.74
2022-08-20T08:49:16.072Z,66.69
2022-08-20T08:54:25.207Z,66.70
2022-08-20T08:59:52.459Z,66.58
2022-08-20T09:05:00.464Z,66.49
2022-08-20T09:10:07.646Z,66.40
2022-08-20T09:15:15.034Z,66.31
2022-08-20T09:20:25.950Z,65.98
2022-08-20T09:25:35.303Z,65.74
2022-08-20T09:30:41.399Z,65.59
2022-08-20T09:35:49.531Z,65.01
2022-08-20T09:40:55.681Z,64.58
2022-08-20T09:46:02.826Z,63.90
2022-08-20T09:51:09.200Z,63.26
2022-08-20T09:56:16.302Z,63.02
2022-08-20T10:01:23.410Z,62.52
2022-08-20T10:06:30.921Z,62.14
2022-08-20T10:11:39.663Z,62.10
2022-08-20T10:16:46.330Z,61.68
2022-08-20T10:21:54.248Z,61.21
2022-08-20T10:27:01.317Z,61.04
2022-08-20T10:32:15.221Z,60.73
2022-08-20T10:37:22.689Z,60.43
2022-08-20T10:42:29.326Z,60.02
2022-08-20T10:47:35.540Z,59.93
2022-08-20T10:52:41.918Z,59.41
2022-08-20T10:57:48.887Z,58.88
2022-08-20T11:02:56.398Z,58.39
2022-08-20T11:08:03.897Z,58.27
2022-08-20T11:13:12.612Z,57.94
2022-08-20T11:18:18.612Z,57.75
2022-08-20T11:23:25.241Z,57.52
2022-08-20T11:28:33.607Z,57.29
2022-08-20T11:33:39.922Z,57.20
2022-08-20T11:38:46.754Z,57.06
2022-08-20T11:44:17.448Z,56.96
2022-08-20T11:49:20.231Z,56.61
2022-08-20T11:54:29.200Z,56.34
2022-08-20T11:59:35.022Z,56.11
2022-08-20T12:04:41.242Z,55.68
2022-08-20T12:09:50.763Z,55.22
2022-08-20T12:14:58.045Z,54.85
2022-08-20T12:20:06.631Z,54.70
2022-08-20T12:25:13.760Z,54.29
2022-08-20T12:30:21.353Z,54.19
2022-08-20T12:35:27.772Z,53.69
2022-08-20T12:40:34.858Z,52.38
2022-08-20T12:45:42.076Z,50.69
2022-08-20T12:50:50.481Z,49.48
2022-08-20T12:55:56.908Z,48.66
2022-08-20T13:01:03.401Z,48.67
2022-08-20T13:06:10.086Z,48.62
2022-08-20T13:11:16.445Z,48.29
2022-08-20T13:16:22.405Z,48.17
2022-08-20T13:21:29.344Z,47.79
2022-08-20T13:26:36.492Z,47.57
2022-08-20T13:31:45.584Z,47.55
2022-08-20T13:36:51.441Z,46.90
2022-08-20T13:41:57.306Z,46.02
2022-08-20T13:47:14.654Z,45.71
2022-08-20T13:52:20.328Z,45.50
2022-08-20T13:57:27.524Z,45.53
2022-08-20T14:02:32.823Z,45.33
2022-08-20T14:07:38.494Z,45.37
2022-08-20T14:12:44.001Z,45.30
2022-08-20T14:17:53.132Z,45.15
2022-08-20T14:22:59.122Z,44.98
2022-08-20T14:28:13.481Z,44.46
2022-08-20T14:33:19.057Z,44.16
2022-08-20T14:38:24.680Z,43.76
2022-08-20T14:43:33.028Z,43.66
2022-08-20T14:48:38.496Z,43.31
2022-08-20T14:53:44.217Z,43.06
2022-08-20T14:58:49.768Z,42.92
2022-08-20T15:03:55.399Z,42.83
2022-08-20T15:09:00.836Z,42.74
2022-08-20T15:14:06.518Z,42.62
2022-08-20T15:19:12.140Z,42.70
2022-08-20T15:24:19.243Z,42.51
2022-08-20T15:29:25.007Z,42.50
2022-08-20T15:34:30.984Z,42.43
2022-08-20T15:39:36.786Z,42.34
2022-08-20T15:44:43.083Z,42.34
2022-08-20T15:49:50.047Z,42.18
2022-08-20T15:54:56.472Z,42.26
2022-08-20T16:00:10.637Z,42.29
2022-08-20T16:05:21.438Z,42.24
2022-08-20T16:10:29.799Z,42.19
2022-08-20T16:15:37.537Z,42.15
2022-08-20T16:20:43.866Z,42.17
2022-08-20T16:25:59.221Z,42.10
2022-08-20T16:31:05.713Z,42.31
2022-08-20T16:36:17.155Z,42.06
2022-08-20T16:41:26.219Z,42.31
2022-08-20T16:46:37.975Z,41.95
2022-08-20T16:51:49.423Z,41.76
2022-08-20T16:57:01.410Z,41.60
2022-08-20T17:02:10.449Z,41.78
2022-08-20T17:07:16.245Z,41.75
2022-08-20T17:12:23.630Z,41.77
2022-08-20T17:17:30.305Z,41.66
2022-08-20T17:22:43.394Z,41.98
2022-08-20T17:27:49.467Z,41.95
2022-08-20T17:33:01.516Z,42.06
2022-08-20T17:38:07.145Z,42.21
2022-08-20T17:43:24.838Z,42.35
2022-08-20T17:48:33.029Z,42.48
2022-08-20T17:53:40.700Z,42.71
2022-08-20T17:58:57.265Z,42.82
2022-08-20T18:04:05.670Z,42.84
2022-08-20T18:09:13.538Z,43.20
2022-08-20T18:14:28.449Z,43.13
2022-08-20T18:19:44.278Z,43.32
2022-08-20T18:24:56.515Z,43.50
2022-08-20T18:30:02.961Z,43.80
2022-08-20T18:35:19.563Z,43.91
2022-08-20T18:40:33.251Z,44.05
2022-08-20T18:45:38.844Z,44.10
2022-08-20T18:50:48.107Z,44.37
2022-08-20T18:56:04.167Z,44.42
2022-08-20T19:01:13.425Z,44.64
2022-08-20T19:06:38.117Z,44.83
2022-08-20T19:12:02.756Z,44.93
2022-08-20T19:17:11.519Z,45.12
2022-08-20T19:22:19.661Z,45.30
2022-08-20T19:27:25.388Z,45.55
2022-08-20T19:32:32.346Z,45.68
2022-08-20T19:37:50.699Z,45.74
2022-08-20T19:42:59.066Z,45.99
2022-08-20T19:48:11.175Z,46.11
2022-08-20T19:53:27.488Z,46.48
2022-08-20T19:58:37.344Z,46.51
2022-08-20T20:03:43.294Z,46.92
2022-08-20T20:08:54.820Z,47.05
2022-08-20T20:14:04.746Z,47.25
2022-08-20T20:19:28.085Z,47.61
2022-08-20T20:24:43.008Z,47.87
2022-08-20T20:29:49.922Z,47.98
2022-08-20T20:34:56.540Z,48.33
2022-08-20T20:40:05.562Z,48.59
2022-08-20T20:45:21.585Z,48.77
2022-08-20T20:50:32.952Z,48.87
2022-08-20T20:55:40.255Z,48.91
2022-08-20T21:00:45.816Z,49.21
2022-08-20T21:05:51.507Z,49.38
2022-08-20T21:10:58.361Z,49.62
2022-08-20T21:16:03.941Z,49.79
2022-08-20T21:21:10.723Z,49.78
2022-08-20T21:26:16.032Z,50.06
2022-08-20T21:31:21.519Z,50.17
2022-08-20T21:36:27.075Z,50.26
2022-08-20T21:41:32.694Z,50.30
2022-08-20T21:46:39.062Z,50.65
2022-08-20T21:51:44.756Z,50.60
2022-08-20T21:56:51.387Z,50.70
2022-08-20T22:01:57.527Z,50.71
2022-08-20T22:07:03.152Z,50.95
2022-08-20T22:12:12.674Z,51.11
2022-08-20T22:17:18.407Z,51.15
2022-08-20T22:22:24.553Z,51.27
2022-08-20T22:27:29.931Z,51.24
2022-08-20T22:32:50.452Z,51.33
2022-08-20T22:37:58.253Z,51.28
2022-08-20T22:43:03.773Z,51.53
2022-08-20T22:48:09.751Z,51.37
2022-08-20T22:53:15.937Z,51.43
2022-08-20T22:58:31.124Z,51.55
2022-08-20T23:03:39.858Z,51.62
2022-08-20T23:08:46.078Z,51.80
2022-08-20T23:13:51.566Z,51.80
2022-08-20T23:18:56.814Z,51.84
2022-08-20T23:24:02.242Z,51.85
2022-08-20T23:29:08.159Z,51.95
2022-08-20T23:34:13.601Z,51.97
2022-08-20T23:39:19.134Z,52.08
2022-08-20T23:44:26.804Z,51.98
2022-08-20T23:49:33.404Z,52.00
2022-08-20T23:54:39.201Z,52.12
2022-08-20T23:59:44.794Z,52.23
